Time;durP1;ratioP1;P1;durP2;ratioP2;P2;SDS_P1;SDS_P2;PMS_P1;PMS_P2;Temp;Humidity;BMP_temperature;BMP_pressure;BME280_temperature;BME280_humidity;BME280_pressure;Samples;Min_cycle;Max_cycle;Signal;HPM_P1;HPM_P2
2023/12/13 00:00:40;;;;;;;12.05;1.70;;;10.20;99.90;;;;;;4953299;28;91646;-75
2023/12/13 00:03:06;;;;;;;6.00;1.17;;;10.20;99.90;;;;;;4971878;28;88255;-75
2023/12/13 00:05:32;;;;;;;6.35;1.27;;;10.20;99.90;;;;;;4953066;28;87893;-75
2023/12/13 00:07:57;;;;;;;8.80;1.50;;;10.20;99.90;;;;;;4952585;28;90200;-75
2023/12/13 00:10:23;;;;;;;8.27;1.38;;;10.10;99.90;;;;;;4951572;28;92150;-75
2023/12/13 00:12:49;;;;;;;9.43;1.48;;;10.10;99.90;;;;;;4951466;28;91505;-75
2023/12/13 00:15:14;;;;;;;10.93;1.55;;;10.10;99.90;;;;;;4954212;28;87763;-75
2023/12/13 00:17:40;;;;;;;8.35;1.08;;;10.10;99.90;;;;;;4970332;28;88201;-75
2023/12/13 00:20:07;;;;;;;7.78;0.98;;;10.10;99.90;;;;;;4969638;28;89358;-75
2023/12/13 00:22:32;;;;;;;7.45;0.90;;;10.10;99.90;;;;;;4952800;28;91020;-75
2023/12/13 00:24:58;;;;;;;9.32;1.00;;;10.10;99.90;;;;;;4954712;28;87248;-75
2023/12/13 00:27:24;;;;;;;6.78;1.23;;;10.00;99.90;;;;;;4955940;28;90028;-75
2023/12/13 00:29:50;;;;;;;12.95;1.63;;;10.10;99.90;;;;;;4955497;28;91137;-75
2023/12/13 00:32:15;;;;;;;7.45;1.33;;;10.10;99.90;;;;;;4975342;28;87166;-75
2023/12/13 00:34:41;;;;;;;12.77;1.20;;;10.20;99.90;;;;;;4976008;28;88852;-76
2023/12/13 00:37:07;;;;;;;6.35;1.30;;;10.20;99.90;;;;;;4975872;28;87477;-75
2023/12/13 00:39:32;;;;;;;12.52;1.10;;;10.10;99.90;;;;;;4958405;28;91823;-76
2023/12/13 00:41:58;;;;;;;6.40;1.33;;;10.20;99.90;;;;;;4957127;28;89115;-75
2023/12/13 00:44:24;;;;;;;9.98;1.52;;;10.10;99.90;;;;;;4955838;28;88014;-75
2023/12/13 00:46:49;;;;;;;10.30;2.75;;;10.20;99.90;;;;;;4955996;28;90577;-75
2023/12/13 00:49:15;;;;;;;9.50;1.50;;;10.20;99.90;;;;;;4954588;28;91490;-75
2023/12/13 00:51:41;;;;;;;5.88;1.38;;;10.20;99.90;;;;;;4955332;28;89299;-75
2023/12/13 00:54:08;;;;;;;13.55;1.35;;;10.20;99.90;;;;;;4956903;28;88234;-75
2023/12/13 00:56:36;;;;;;;11.77;1.92;;;10.30;99.90;;;;;;4953940;28;90812;-76
2023/12/13 00:59:01;;;;;;;15.35;1.85;;;10.30;99.90;;;;;;4970334;28;89368;-75
2023/12/13 01:01:27;;;;;;;8.60;1.52;;;10.30;99.90;;;;;;4970255;28;87579;-75
2023/12/13 01:03:52;;;;;;;9.57;1.25;;;10.20;99.90;;;;;;4952622;28;87363;-75
2023/12/13 01:06:18;;;;;;;10.55;2.42;;;10.30;99.90;;;;;;4970967;28;87982;-75
2023/12/13 01:08:44;;;;;;;16.08;2.05;;;10.30;99.90;;;;;;4951381;28;90854;-76
2023/12/13 01:11:10;;;;;;;10.10;1.77;;;10.30;99.90;;;;;;4951317;28;92819;-75
2023/12/13 01:13:37;;;;;;;16.65;1.65;;;10.30;99.90;;;;;;4969806;28;87596;-75
2023/12/13 01:16:03;;;;;;;16.08;2.58;;;10.30;99.90;;;;;;4953081;28;90717;-75
2023/12/13 01:18:28;;;;;;;12.10;1.67;;;10.20;99.90;;;;;;4953770;28;90486;-75
2023/12/13 01:20:54;;;;;;;11.52;1.80;;;10.30;99.90;;;;;;4953597;28;91109;-75
2023/12/13 01:23:19;;;;;;;13.27;1.60;;;10.30;99.90;;;;;;4951827;28;88688;-75
2023/12/13 01:25:45;;;;;;;9.52;1.35;;;10.40;99.90;;;;;;4952220;28;90514;-75
2023/12/13 01:28:11;;;;;;;13.48;2.35;;;10.40;99.90;;;;;;4952551;28;90851;-75
2023/12/13 01:30:36;;;;;;;12.30;2.15;;;10.40;99.90;;;;;;4951971;28;90130;-75
2023/12/13 01:33:02;;;;;;;12.60;1.70;;;10.40;99.90;;;;;;4954992;28;87793;-75
2023/12/13 01:35:28;;;;;;;12.73;2.60;;;10.40;99.90;;;;;;4953676;28;90664;-75
2023/12/13 01:37:53;;;;;;;14.98;1.75;;;10.50;99.90;;;;;;4950720;28;91868;-75
2023/12/13 01:40:19;;;;;;;10.18;1.63;;;10.40;99.90;;;;;;4968646;28;88409;-75
2023/12/13 01:42:45;;;;;;;17.17;2.03;;;10.30;99.90;;;;;;4951265;28;87414;-75
2023/12/13 01:45:10;;;;;;;17.65;3.78;;;10.30;99.90;;;;;;4952402;28;89267;-75
2023/12/13 01:47:37;;;;;;;14.23;1.27;;;10.20;99.90;;;;;;4967595;28;89179;-75
2023/12/13 01:50:04;;;;;;;12.10;1.67;;;10.20;99.90;;;;;;4965599;28;90646;-75
2023/12/13 01:52:30;;;;;;;16.38;3.38;;;10.30;99.90;;;;;;4967953;28;87315;-75
2023/12/13 01:54:55;;;;;;;12.27;2.13;;;10.20;99.90;;;;;;4968972;28;87679;-75
2023/12/13 01:57:21;;;;;;;15.60;1.95;;;10.20;99.90;;;;;;4969078;28;87906;-75
2023/12/13 01:59:47;;;;;;;20.42;2.05;;;10.30;99.90;;;;;;4967818;28;88936;-75
2023/12/13 02:02:13;;;;;;;20.02;2.42;;;10.30;99.90;;;;;;4950942;28;87645;-75
2023/12/13 02:04:40;;;;;;;14.45;2.50;;;10.20;99.90;;;;;;4968794;28;87403;-75
2023/12/13 02:07:05;;;;;;;17.48;2.78;;;10.20;99.90;;;;;;4968097;28;88422;-75
2023/12/13 02:09:31;;;;;;;14.75;2.15;;;10.20;99.90;;;;;;4950690;28;89604;-75
2023/12/13 02:11:57;;;;;;;16.70;2.20;;;10.20;99.90;;;;;;4951602;28;88395;-75
2023/12/13 02:14:25;;;;;;;20.55;2.50;;;10.30;99.90;;;;;;4968771;28;87157;-75
2023/12/13 02:16:50;;;;;;;14.90;1.90;;;10.40;99.90;;;;;;4967638;28;89244;-75
2023/12/13 02:19:16;;;;;;;14.95;2.10;;;10.40;99.90;;;;;;4967437;28;88099;-75
2023/12/13 02:21:42;;;;;;;20.73;2.25;;;10.40;99.90;;;;;;4951213;28;87415;-75
2023/12/13 02:24:08;;;;;;;20.08;3.13;;;10.50;99.90;;;;;;4969436;28;87839;-75
2023/12/13 02:26:40;;;;;;;15.70;2.13;;;10.40;99.90;;;;;;4968031;28;88316;-75
2023/12/13 02:29:07;;;;;;;16.13;2.60;;;10.40;99.90;;;;;;4950388;28;91310;-75
2023/12/13 02:31:35;;;;;;;21.80;2.50;;;10.40;99.90;;;;;;4968660;28;88466;-75
2023/12/13 02:34:00;;;;;;;21.40;2.65;;;10.40;99.90;;;;;;4951816;28;90302;-75
2023/12/13 02:36:26;;;;;;;10.80;2.30;;;10.40;99.90;;;;;;4950837;28;92545;-74
2023/12/13 02:38:52;;;;;;;16.92;2.05;;;10.30;99.90;;;;;;4968661;28;89451;-75
2023/12/13 02:41:17;;;;;;;20.10;2.15;;;10.30;99.90;;;;;;4951614;28;87336;-75
2023/12/13 02:43:43;;;;;;;22.05;2.95;;;10.40;99.90;;;;;;4950532;28;90409;-75
2023/12/13 02:46:09;;;;;;;13.52;2.25;;;10.40;99.90;;;;;;4967963;28;88158;-75
2023/12/13 02:48:34;;;;;;;17.08;2.83;;;10.40;99.90;;;;;;4967927;28;88364;-75
2023/12/13 02:51:00;;;;;;;17.13;2.08;;;10.40;99.90;;;;;;4952275;28;87251;-75
2023/12/13 02:53:26;;;;;;;14.95;2.38;;;10.40;99.90;;;;;;4952709;28;90658;-75
2023/12/13 02:55:51;;;;;;;14.60;2.17;;;10.40;99.90;;;;;;4954048;28;91589;-75
2023/12/13 02:58:17;;;;;;;17.50;2.50;;;10.50;99.90;;;;;;4954181;28;91358;-75
2023/12/13 03:00:43;;;;;;;20.08;2.88;;;10.50;99.90;;;;;;4971103;28;88800;-75
2023/12/13 03:03:08;;;;;;;17.38;1.80;;;10.40;99.90;;;;;;4971816;28;88150;-75
2023/12/13 03:05:34;;;;;;;17.35;2.33;;;10.40;99.90;;;;;;4954071;28;90877;-75
2023/12/13 03:08:00;;;;;;;13.85;2.10;;;10.40;99.90;;;;;;4971507;28;88279;-75
2023/12/13 03:10:27;;;;;;;17.55;2.75;;;10.40;99.90;;;;;;4971767;28;87869;-75
2023/12/13 03:12:53;;;;;;;10.68;2.15;;;10.50;99.90;;;;;;4952904;28;88555;-75
2023/12/13 03:15:19;;;;;;;16.48;2.38;;;10.50;99.90;;;;;;4971911;28;88238;-76
2023/12/13 03:17:44;;;;;;;15.25;1.77;;;10.50;99.90;;;;;;4954118;28;90854;-75
2023/12/13 03:20:11;;;;;;;14.43;2.42;;;10.50;99.90;;;;;;4952909;28;87609;-75
2023/12/13 03:22:37;;;;;;;16.40;2.72;;;10.50;99.90;;;;;;4970358;28;87788;-75
2023/12/13 03:25:04;;;;;;;22.17;2.88;;;10.50;99.90;;;;;;4970250;28;89556;-75
2023/12/13 03:27:30;;;;;;;16.25;2.40;;;10.50;99.90;;;;;;4952720;28;91797;-75
2023/12/13 03:29:56;;;;;;;16.15;2.20;;;10.40;99.90;;;;;;4954166;28;87836;-75
2023/12/13 03:32:21;;;;;;;18.38;3.75;;;10.50;99.90;;;;;;4969120;28;89977;-75
2023/12/13 03:34:47;;;;;;;19.30;1.88;;;10.50;99.90;;;;;;4970485;28;88140;-74
2023/12/13 03:37:14;;;;;;;13.50;2.78;;;10.50;99.90;;;;;;4952993;28;91144;-74
2023/12/13 03:39:40;;;;;;;15.30;2.15;;;10.50;99.90;;;;;;4970147;28;87902;-75
2023/12/13 03:42:06;;;;;;;13.82;1.98;;;10.50;99.90;;;;;;4971800;28;86951;-76
2023/12/13 03:44:31;;;;;;;22.58;2.50;;;10.60;99.90;;;;;;4953159;28;89660;-75
2023/12/13 03:46:57;;;;;;;21.45;2.83;;;10.50;99.90;;;;;;4954053;28;91348;-75
2023/12/13 03:49:23;;;;;;;13.98;2.20;;;10.50;99.90;;;;;;4970525;28;88318;-75
2023/12/13 03:51:48;;;;;;;12.73;1.50;;;10.60;99.90;;;;;;4953164;28;88886;-75
2023/12/13 03:54:15;;;;;;;19.95;2.17;;;10.50;99.90;;;;;;4972375;28;88169;-74
2023/12/13 03:56:41;;;;;;;11.27;1.80;;;10.40;99.90;;;;;;4953320;28;91619;-75
2023/12/13 03:59:07;;;;;;;7.20;1.48;;;10.40;99.90;;;;;;4971071;28;88555;-75
2023/12/13 04:01:32;;;;;;;17.20;1.92;;;10.40;99.90;;;;;;4953848;28;90453;-75
2023/12/13 04:03:58;;;;;;;15.68;1.80;;;10.50;99.90;;;;;;4953379;28;91594;-75
2023/12/13 04:06:24;;;;;;;13.05;1.95;;;10.50;99.90;;;;;;4972061;28;87863;-75
2023/12/13 04:08:49;;;;;;;14.32;1.92;;;10.50;99.90;;;;;;4970277;28;87873;-75
2023/12/13 04:11:15;;;;;;;12.57;1.95;;;10.50;99.90;;;;;;4970311;28;87697;-75
2023/12/13 04:13:42;;;;;;;18.27;2.20;;;10.40;99.90;;;;;;4954106;28;90894;-75
2023/12/13 04:16:08;;;;;;;19.73;2.35;;;10.40;99.90;;;;;;4951605;28;91990;-75
2023/12/13 04:18:34;;;;;;;13.98;1.70;;;10.40;99.90;;;;;;4951999;28;87689;-76
2023/12/13 04:21:00;;;;;;;11.07;1.60;;;10.30;99.90;;;;;;4953388;28;89458;-75
2023/12/13 04:23:25;;;;;;;14.10;1.77;;;10.40;99.90;;;;;;4952241;28;91473;-75
2023/12/13 04:25:51;;;;;;;11.88;1.55;;;10.30;99.90;;;;;;4970780;28;87727;-74
2023/12/13 04:28:17;;;;;;;14.43;1.70;;;10.30;99.90;;;;;;4970836;28;88055;-75
2023/12/13 04:30:42;;;;;;;12.52;1.55;;;10.30;99.90;;;;;;4952462;28;90740;-75
2023/12/13 04:33:08;;;;;;;18.05;1.90;;;10.30;99.90;;;;;;4952247;28;90309;-74
2023/12/13 04:35:34;;;;;;;13.07;1.70;;;10.30;99.90;;;;;;4970120;28;87937;-75
2023/12/13 04:37:59;;;;;;;12.32;1.85;;;10.30;99.90;;;;;;4970297;28;88176;-74
2023/12/13 04:40:25;;;;;;;17.42;2.33;;;10.40;99.90;;;;;;4953994;28;88746;-75
2023/12/13 04:42:51;;;;;;;9.68;1.90;;;10.40;99.90;;;;;;4971185;28;89012;-75
2023/12/13 04:45:16;;;;;;;14.82;2.58;;;10.40;99.90;;;;;;4954494;28;90322;-75
2023/12/13 04:47:42;;;;;;;17.08;2.30;;;10.50;99.90;;;;;;4970294;28;88208;-75
2023/12/13 04:50:09;;;;;;;16.75;1.70;;;10.60;99.90;;;;;;4952619;28;90807;-75
2023/12/13 04:52:34;;;;;;;10.63;1.92;;;10.60;99.90;;;;;;4970036;28;88174;-75
2023/12/13 04:55:00;;;;;;;6.97;1.70;;;10.60;99.90;;;;;;4970819;28;87444;-75
2023/12/13 04:57:26;;;;;;;15.05;2.13;;;10.60;99.90;;;;;;4953667;28;87626;-74
2023/12/13 04:59:52;;;;;;;15.07;1.85;;;10.60;99.90;;;;;;4970615;28;87982;-75
2023/12/13 05:02:17;;;;;;;18.77;1.95;;;10.70;99.90;;;;;;4951203;28;91467;-75
2023/12/13 05:04:43;;;;;;;15.20;1.83;;;10.60;99.90;;;;;;4951218;28;92067;-76
2023/12/13 05:07:09;;;;;;;10.02;1.70;;;10.70;99.90;;;;;;4952161;28;87664;-75
2023/12/13 05:09:35;;;;;;;13.65;2.70;;;10.60;99.90;;;;;;4951881;28;89947;-75
2023/12/13 05:12:01;;;;;;;12.70;1.70;;;10.50;99.90;;;;;;4952641;28;91725;-75
2023/12/13 05:14:27;;;;;;;18.92;3.13;;;10.40;99.90;;;;;;4968868;28;91680;-76
2023/12/13 05:16:53;;;;;;;4.80;1.50;;;10.40;99.90;;;;;;4951606;28;87883;-76
2023/12/13 05:19:18;;;;;;;11.43;1.70;;;10.40;99.90;;;;;;4952960;28;90865;-75
2023/12/13 05:21:44;;;;;;;14.48;1.80;;;10.30;99.90;;;;;;4951361;28;92231;-75
2023/12/13 05:24:10;;;;;;;10.45;1.48;;;10.30;99.90;;;;;;4952296;28;93261;-75
2023/12/13 05:26:35;;;;;;;11.00;1.85;;;10.30;99.90;;;;;;4968301;28;88735;-75
2023/12/13 05:29:02;;;;;;;17.98;2.22;;;10.20;99.90;;;;;;4950529;28;90504;-75
2023/12/13 05:31:28;;;;;;;10.70;2.00;;;10.10;99.90;;;;;;4949668;28;91543;-75
2023/12/13 05:33:54;;;;;;;12.02;1.95;;;10.10;99.90;;;;;;4968008;28;88542;-75
2023/12/13 05:36:20;;;;;;;14.20;1.85;;;10.00;99.90;;;;;;4969454;28;88051;-75
2023/12/13 05:38:46;;;;;;;12.27;1.65;;;10.00;99.90;;;;;;4951243;28;89356;-75
2023/12/13 05:41:12;;;;;;;16.63;2.80;;;9.90;99.90;;;;;;4968104;28;88123;-75
2023/12/13 05:43:37;;;;;;;15.40;1.90;;;9.90;99.90;;;;;;4950497;28;91319;-75
2023/12/13 05:46:04;;;;;;;19.92;2.70;;;9.80;99.90;;;;;;4950468;28;87717;-75
2023/12/13 05:48:31;;;;;;;17.40;1.92;;;9.80;99.90;;;;;;4967804;28;87477;-75
2023/12/13 05:50:57;;;;;;;16.98;2.05;;;9.80;99.90;;;;;;4967830;28;89676;-75
2023/12/13 05:53:23;;;;;;;17.73;2.17;;;9.80;99.90;;;;;;4949690;28;91890;-75
2023/12/13 05:55:49;;;;;;;14.13;1.30;;;9.80;99.90;;;;;;4955552;28;87199;-75
2023/12/13 05:58:14;;;;;;;19.08;1.95;;;9.80;99.90;;;;;;4967100;28;88094;-75
2023/12/13 06:00:40;;;;;;;12.77;1.77;;;9.80;99.90;;;;;;4950298;28;91259;-75
2023/12/13 06:03:06;;;;;;;12.45;1.77;;;9.70;99.90;;;;;;4967592;28;87847;-76
2023/12/13 06:05:31;;;;;;;11.95;1.75;;;9.70;99.90;;;;;;4949930;28;87497;-75
2023/12/13 06:07:57;;;;;;;18.15;1.98;;;9.80;99.90;;;;;;4949744;28;90560;-75
2023/12/13 06:10:23;;;;;;;9.02;1.73;;;9.80;99.90;;;;;;4949025;28;89897;-75
2023/12/13 06:12:52;;;;;;;13.38;1.95;;;9.80;99.90;;;;;;4966540;28;87767;-76
2023/12/13 06:15:19;;;;;;;12.65;2.33;;;9.80;99.90;;;;;;4967028;28;88961;-76
2023/12/13 06:17:44;;;;;;;10.13;1.80;;;9.90;99.90;;;;;;4967037;28;88525;-75
2023/12/13 06:20:10;;;;;;;16.08;1.88;;;10.00;99.90;;;;;;4967345;28;87745;-75
2023/12/13 06:22:36;;;;;;;16.17;2.13;;;9.90;99.90;;;;;;4967765;28;88312;-75
2023/12/13 06:25:02;;;;;;;15.23;2.25;;;9.90;99.90;;;;;;4950551;28;87276;-75
2023/12/13 06:27:28;;;;;;;19.15;3.00;;;9.90;99.90;;;;;;4906028;28;1243734;-75
2023/12/13 06:29:53;;;;;;;13.20;1.95;;;9.80;99.90;;;;;;4968075;28;87766;-75
2023/12/13 06:32:19;;;;;;;16.77;2.40;;;9.90;99.90;;;;;;4968417;28;88012;-75
2023/12/13 06:34:45;;;;;;;20.88;3.17;;;9.90;99.90;;;;;;4951975;28;87512;-76
2023/12/13 06:37:11;;;;;;;17.40;2.58;;;9.80;99.90;;;;;;4949963;28;90924;-76
2023/12/13 06:39:37;;;;;;;22.67;2.00;;;9.90;99.90;;;;;;4949919;28;92535;-75
2023/12/13 06:42:09;;;;;;;19.17;2.20;;;9.90;99.90;;;;;;4969181;28;88257;-76
2023/12/13 06:44:39;;;;;;;16.90;2.20;;;9.90;99.90;;;;;;4966491;28;88076;-77
2023/12/13 06:47:06;;;;;;;14.20;2.00;;;9.90;99.90;;;;;;4950542;28;90013;-76
2023/12/13 06:49:34;;;;;;;15.98;2.17;;;9.90;99.90;;;;;;4968352;28;87948;-76
2023/12/13 06:52:01;;;;;;;15.82;2.03;;;9.90;99.90;;;;;;4968792;28;88535;-76
2023/12/13 06:54:28;;;;;;;16.38;2.08;;;9.90;99.90;;;;;;4952942;28;88279;-74
2023/12/13 06:56:54;;;;;;;12.35;1.95;;;9.90;99.90;;;;;;4952213;28;89581;-75
2023/12/13 06:59:20;;;;;;;18.30;2.50;;;9.90;99.90;;;;;;4969009;28;88029;-75
2023/12/13 07:01:45;;;;;;;13.23;1.63;;;9.70;99.90;;;;;;4970733;28;88547;-75
2023/12/13 07:04:11;;;;;;;21.20;2.10;;;9.60;99.90;;;;;;4969190;28;88108;-75
2023/12/13 07:06:37;;;;;;;5.50;1.70;;;9.40;99.90;;;;;;4970737;28;87683;-75
2023/12/13 07:09:03;;;;;;;15.35;2.40;;;9.30;99.90;;;;;;4954444;28;90479;-75
2023/12/13 07:11:29;;;;;;;15.40;2.00;;;9.30;99.90;;;;;;4955568;28;90340;-75
2023/12/13 07:13:55;;;;;;;12.57;1.83;;;9.20;99.90;;;;;;4956091;28;88098;-75
2023/12/13 07:16:21;;;;;;;17.13;1.70;;;9.20;99.90;;;;;;4971743;28;87616;-74
2023/12/13 07:18:46;;;;;;;13.82;1.90;;;9.20;99.90;;;;;;4953390;28;91590;-75
2023/12/13 07:21:12;;;;;;;11.23;1.67;;;9.10;99.90;;;;;;4954694;28;91037;-75
2023/12/13 07:23:39;;;;;;;16.88;1.88;;;9.20;99.90;;;;;;4970818;28;87616;-75
2023/12/13 07:26:05;;;;;;;15.40;2.65;;;9.10;99.90;;;;;;4952551;28;89515;-75
2023/12/13 07:28:31;;;;;;;13.95;1.98;;;9.10;99.90;;;;;;4952512;28;92636;-75
2023/12/13 07:30:57;;;;;;;21.42;2.72;;;9.10;99.90;;;;;;4969265;28;89293;-75
2023/12/13 07:33:23;;;;;;;13.63;1.98;;;9.10;99.90;;;;;;4968958;28;87337;-75
2023/12/13 07:35:49;;;;;;;11.55;2.33;;;9.10;99.90;;;;;;4950939;28;90561;-75
2023/12/13 07:38:15;;;;;;;10.25;2.20;;;9.00;99.90;;;;;;4951110;28;91709;-75
2023/12/13 07:40:44;;;;;;;12.50;1.83;;;9.10;99.90;;;;;;4970897;28;89522;-75
2023/12/13 07:43:10;;;;;;;12.75;3.10;;;9.00;99.90;;;;;;4955820;28;87701;-75
2023/12/13 07:45:36;;;;;;;12.35;2.05;;;9.00;99.90;;;;;;4973390;28;88032;-75
2023/12/13 07:48:03;;;;;;;11.95;1.90;;;9.00;99.90;;;;;;4974072;28;87718;-75
2023/12/13 07:50:29;;;;;;;16.77;2.30;;;9.00;99.90;;;;;;4955358;28;91330;-75
2023/12/13 07:52:56;;;;;;;17.08;2.50;;;9.10;99.90;;;;;;4953156;28;88092;-75
2023/12/13 07:55:23;;;;;;;8.05;1.70;;;9.00;99.90;;;;;;4955736;28;90331;-75
2023/12/13 07:57:49;;;;;;;17.23;2.30;;;9.00;99.90;;;;;;4972169;28;87992;-76
2023/12/13 08:00:15;;;;;;;15.05;2.85;;;9.00;99.90;;;;;;4972841;28;88396;-75
2023/12/13 08:02:41;;;;;;;16.50;2.05;;;9.00;99.90;;;;;;4972262;28;87677;-76
2023/12/13 08:05:08;;;;;;;12.98;1.98;;;9.00;99.90;;;;;;4954476;28;91360;-75
2023/12/13 08:07:35;;;;;;;9.55;2.33;;;9.00;99.90;;;;;;4952481;28;91339;-75
2023/12/13 08:10:03;;;;;;;18.00;2.60;;;9.10;99.90;;;;;;4959963;28;88130;-76
2023/12/13 08:12:29;;;;;;;13.00;2.05;;;9.10;99.90;;;;;;4965182;28;87593;-75
2023/12/13 08:14:54;;;;;;;13.25;2.15;;;9.10;99.90;;;;;;4965797;28;87326;-75
2023/12/13 08:17:20;;;;;;;19.63;2.17;;;9.10;99.90;;;;;;4945487;28;92095;-76
2023/12/13 08:19:46;;;;;;;11.00;1.52;;;9.10;99.90;;;;;;4964478;28;90979;-75
2023/12/13 08:22:12;;;;;;;20.48;1.95;;;9.10;99.90;;;;;;4951608;28;88200;-76
2023/12/13 08:24:37;;;;;;;17.45;2.20;;;9.10;99.90;;;;;;4949198;28;90342;-75
2023/12/13 08:27:03;;;;;;;12.48;2.03;;;9.10;99.90;;;;;;4966114;28;88500;-78
2023/12/13 08:29:30;;;;;;;14.93;2.38;;;9.20;99.90;;;;;;4958257;28;89902;-75
2023/12/13 08:31:55;;;;;;;11.65;2.10;;;9.20;99.90;;;;;;4967325;28;87662;-75
2023/12/13 08:34:21;;;;;;;15.60;2.75;;;9.20;99.90;;;;;;4948013;28;88960;-75
2023/12/13 08:36:47;;;;;;;16.63;4.13;;;9.20;99.90;;;;;;4947010;28;91578;-75
2023/12/13 08:39:14;;;;;;;10.23;2.42;;;9.20;99.90;;;;;;4948404;28;91672;-76
2023/12/13 08:41:39;;;;;;;15.45;2.47;;;9.10;99.90;;;;;;4947188;28;88994;-75
2023/12/13 08:44:05;;;;;;;14.63;2.42;;;9.20;99.90;;;;;;4945373;28;90335;-75
2023/12/13 08:46:31;;;;;;;19.85;2.25;;;9.20;99.90;;;;;;4950402;28;91459;-75
2023/12/13 08:48:56;;;;;;;10.52;2.08;;;9.20;99.90;;;;;;4953479;28;89164;-74
2023/12/13 08:51:23;;;;;;;21.67;2.58;;;9.20;99.90;;;;;;4971206;28;87983;-74
2023/12/13 08:53:54;;;;;;;10.68;2.65;;;9.20;99.90;;;;;;4953569;28;89921;-74
2023/12/13 08:56:20;;;;;;;13.98;1.92;;;9.20;99.90;;;;;;4953571;28;91886;-74
2023/12/13 08:58:45;;;;;;;16.88;2.13;;;9.20;99.90;;;;;;4951992;28;90142;-74
2023/12/13 09:01:11;;;;;;;13.90;1.95;;;9.20;99.90;;;;;;4952437;28;88306;-74
2023/12/13 09:03:37;;;;;;;17.42;2.17;;;9.30;99.90;;;;;;4951415;28;89483;-74
2023/12/13 09:06:03;;;;;;;15.48;2.20;;;9.30;99.90;;;;;;4952408;28;92029;-74
2023/12/13 09:08:29;;;;;;;10.63;2.70;;;9.30;99.90;;;;;;4950939;28;93514;-74
2023/12/13 09:10:55;;;;;;;18.02;2.30;;;9.30;99.90;;;;;;4950970;28;87529;-74
2023/12/13 09:13:20;;;;;;;13.40;1.60;;;9.40;99.90;;;;;;4950544;28;90440;-74
2023/12/13 09:15:46;;;;;;;15.20;1.55;;;9.40;99.90;;;;;;4951824;28;91488;-75
2023/12/13 09:18:12;;;;;;;17.38;1.88;;;9.40;99.90;;;;;;4970285;28;87928;-74
2023/12/13 09:20:37;;;;;;;10.77;1.52;;;9.40;99.90;;;;;;4953285;28;87670;-74
2023/12/13 09:23:04;;;;;;;10.50;1.70;;;9.50;99.90;;;;;;4969311;28;87217;-74
2023/12/13 09:25:30;;;;;;;19.40;1.90;;;9.50;99.90;;;;;;4951821;28;91753;-75
2023/12/13 09:27:55;;;;;;;21.30;2.42;;;9.50;99.90;;;;;;4951980;28;90949;-74
2023/12/13 09:30:21;;;;;;;20.95;3.72;;;9.50;99.90;;;;;;4952872;28;89354;-74
2023/12/13 09:32:47;;;;;;;18.83;2.17;;;9.50;99.90;;;;;;4969003;28;87386;-74
2023/12/13 09:35:13;;;;;;;19.00;1.65;;;9.50;99.90;;;;;;4952247;28;91641;-74
2023/12/13 09:37:38;;;;;;;15.90;2.33;;;9.50;99.90;;;;;;4952346;28;91305;-74
2023/12/13 09:40:04;;;;;;;17.67;2.22;;;9.50;99.90;;;;;;4952427;28;87507;-75
2023/12/13 09:42:30;;;;;;;10.15;1.70;;;9.50;99.90;;;;;;4971457;28;87866;-74
2023/12/13 09:44:57;;;;;;;14.20;2.00;;;9.40;99.90;;;;;;4954563;28;91189;-74
2023/12/13 09:47:24;;;;;;;17.45;2.33;;;9.50;99.90;;;;;;4953269;28;89968;-73
2023/12/13 09:49:50;;;;;;;18.63;2.05;;;9.40;99.90;;;;;;4952305;28;88088;-74
2023/12/13 09:52:19;;;;;;;19.20;2.47;;;9.50;99.90;;;;;;4950427;28;90159;-74
2023/12/13 09:54:46;;;;;;;16.92;2.25;;;9.50;99.90;;;;;;4968396;28;89575;-73
2023/12/13 09:57:12;;;;;;;18.13;2.20;;;9.40;99.90;;;;;;4969134;28;88317;-74
2023/12/13 09:59:38;;;;;;;30.75;3.72;;;9.40;99.90;;;;;;4952184;28;87906;-74
2023/12/13 10:02:16;;;;;;;13.20;2.90;;;9.50;99.90;;;;;;4951392;28;89153;-74
2023/12/13 10:04:43;;;;;;;11.82;1.52;;;9.50;99.90;;;;;;4950189;28;89343;-74
2023/12/13 10:07:09;;;;;;;15.63;1.90;;;9.40;99.90;;;;;;4951616;28;90894;-74
2023/12/13 10:09:35;;;;;;;14.88;2.15;;;9.40;99.90;;;;;;4951480;28;87916;-74
2023/12/13 10:12:01;;;;;;;22.63;2.35;;;9.50;99.90;;;;;;4952698;28;90144;-74
2023/12/13 10:14:29;;;;;;;15.35;2.67;;;9.50;99.90;;;;;;4951672;28;91284;-74
2023/12/13 10:16:56;;;;;;;11.15;2.30;;;9.50;99.90;;;;;;4951673;28;90333;-74
2023/12/13 10:19:22;;;;;;;15.35;1.60;;;9.40;99.90;;;;;;4952254;28;89002;-74
2023/12/13 10:21:48;;;;;;;8.98;1.48;;;9.50;99.90;;;;;;4950887;28;90628;-74
2023/12/13 10:24:15;;;;;;;8.43;2.05;;;9.50;99.90;;;;;;4950376;28;90980;-74
2023/12/13 10:26:41;;;;;;;13.68;1.75;;;9.50;99.90;;;;;;4966216;28;91971;-74
2023/12/13 10:29:07;;;;;;;10.50;1.52;;;9.50;99.90;;;;;;4967272;28;87931;-74
2023/12/13 10:31:33;;;;;;;11.93;1.63;;;9.50;99.90;;;;;;4950537;28;89360;-75
2023/12/13 10:33:59;;;;;;;12.57;1.40;;;9.50;99.90;;;;;;4949543;28;89743;-75
2023/12/13 10:36:26;;;;;;;10.90;1.58;;;9.50;99.90;;;;;;4969411;28;87891;-74
2023/12/13 10:38:56;;;;;;;12.20;1.58;;;9.60;99.90;;;;;;4969526;28;87446;-75
2023/12/13 10:41:27;;;;;;;15.48;3.53;;;9.60;99.90;;;;;;4968747;28;87522;-74
2023/12/13 10:43:58;;;;;;;20.80;1.90;;;9.60;99.90;;;;;;4951170;28;90874;-74
2023/12/13 10:46:33;;;;;;;6.47;1.52;;;9.70;99.90;;;;;;4950953;28;92461;-74
2023/12/13 10:48:59;;;;;;;13.70;2.13;;;9.80;99.90;;;;;;4968090;28;88286;-74
2023/12/13 10:51:27;;;;;;;10.07;2.00;;;9.90;99.90;;;;;;4950771;28;90371;-74
2023/12/13 10:53:55;;;;;;;10.25;1.55;;;9.90;99.90;;;;;;4950433;28;95570;-74
2023/12/13 10:56:21;;;;;;;8.32;1.58;;;10.00;99.90;;;;;;4950419;28;90892;-74
2023/12/13 10:58:47;;;;;;;11.25;2.63;;;10.00;99.90;;;;;;4952021;28;87895;-74
2023/12/13 11:01:15;;;;;;;10.80;2.03;;;10.00;99.90;;;;;;4969390;28;87107;-75
2023/12/13 11:04:01;;;;;;;12.18;1.70;;;10.00;99.90;;;;;;4950596;28;91946;-74
2023/12/13 11:06:27;;;;;;;11.18;1.80;;;10.00;99.90;;;;;;4950716;28;91252;-75
2023/12/13 11:08:53;;;;;;;6.72;1.48;;;10.00;99.90;;;;;;4968076;28;89005;-75
2023/12/13 11:11:19;;;;;;;7.00;1.38;;;9.90;99.90;;;;;;4950542;28;89513;-74
2023/12/13 11:13:49;;;;;;;11.60;2.20;;;9.90;99.90;;;;;;4950314;28;90912;-74
2023/12/13 11:16:20;;;;;;;9.70;1.50;;;10.00;99.90;;;;;;4953873;28;91172;-74
2023/12/13 11:18:48;;;;;;;6.78;1.10;;;10.00;99.90;;;;;;4955090;28;87974;-74
2023/12/13 11:21:25;;;;;;;6.10;1.83;;;10.00;99.90;;;;;;4972714;28;87115;-75
2023/12/13 11:23:52;;;;;;;11.20;1.38;;;10.00;99.90;;;;;;4953843;28;90842;-74
2023/12/13 11:26:24;;;;;;;8.88;1.52;;;10.10;99.90;;;;;;4950975;28;90593;-74
2023/12/13 11:28:52;;;;;;;11.38;1.10;;;10.10;99.90;;;;;;4954276;28;87896;-74
2023/12/13 11:31:25;;;;;;;12.15;2.35;;;10.10;99.90;;;;;;4953540;28;90241;-75
2023/12/13 11:33:55;;;;;;;9.15;1.30;;;10.20;99.90;;;;;;4953075;28;92068;-75
2023/12/13 11:36:22;;;;;;;10.40;1.63;;;10.20;99.90;;;;;;4972674;28;89440;-75
2023/12/13 11:38:52;;;;;;;4.90;1.75;;;10.20;99.90;;;;;;4971664;28;88379;-74
2023/12/13 11:41:18;;;;;;;6.63;0.93;;;10.20;99.90;;;;;;4971748;28;87793;-74
2023/12/13 11:43:47;;;;;;;6.70;1.20;;;10.30;99.90;;;;;;4954336;28;91096;-73
2023/12/13 11:46:14;;;;;;;6.35;1.00;;;10.40;99.90;;;;;;4959990;28;91217;-74
2023/12/13 11:48:43;;;;;;;4.53;1.05;;;10.50;99.90;;;;;;4953888;28;88297;-73
2023/12/13 11:51:09;;;;;;;6.68;1.00;;;10.50;99.90;;;;;;4955201;28;90078;-73
2023/12/13 11:53:34;;;;;;;7.13;1.27;;;10.60;99.90;;;;;;4971464;28;87981;-74
2023/12/13 11:56:00;;;;;;;5.70;1.13;;;10.60;99.90;;;;;;4970910;28;87823;-74
2023/12/13 11:58:29;;;;;;;4.03;0.70;;;10.70;99.90;;;;;;4969802;28;88771;-73
2023/12/13 12:00:58;;;;;;;8.55;1.02;;;10.70;99.90;;;;;;4969791;28;87474;-73
2023/12/13 12:03:24;;;;;;;2.40;0.98;;;10.70;99.90;;;;;;4971601;28;88195;-73
2023/12/13 12:05:49;;;;;;;9.50;0.90;;;10.70;99.90;;;;;;4970044;28;88105;-73
2023/12/13 12:08:15;;;;;;;6.07;0.98;;;10.70;99.90;;;;;;4971618;28;87390;-73
2023/12/13 12:10:42;;;;;;;7.38;1.02;;;10.80;99.90;;;;;;4970871;28;87664;-73
2023/12/13 12:13:08;;;;;;;4.15;1.02;;;10.80;99.90;;;;;;4952972;28;91184;-74
2023/12/13 12:15:33;;;;;;;4.43;1.00;;;10.80;99.90;;;;;;4969481;28;87863;-74
2023/12/13 12:18:01;;;;;;;4.93;0.93;;;10.80;99.90;;;;;;4954713;28;87844;-74
2023/12/13 12:20:27;;;;;;;2.08;0.65;;;10.80;99.90;;;;;;4970326;28;87640;-74
2023/12/13 12:22:53;;;;;;;2.72;0.90;;;10.80;99.90;;;;;;4953122;28;91089;-74
2023/12/13 12:25:20;;;;;;;4.03;0.82;;;10.90;99.90;;;;;;4954314;28;91850;-73
2023/12/13 12:27:49;;;;;;;3.97;0.73;;;10.90;99.90;;;;;;4957069;28;87706;-73
2023/12/13 12:30:17;;;;;;;4.45;0.73;;;10.90;99.90;;;;;;4970538;28;87944;-73
2023/12/13 12:32:43;;;;;;;3.13;0.73;;;10.90;99.90;;;;;;4953426;28;92213;-74
2023/12/13 12:35:09;;;;;;;4.15;0.50;;;11.00;99.90;;;;;;4952805;28;91207;-73
2023/12/13 12:37:35;;;;;;;3.35;0.70;;;11.10;99.90;;;;;;4970207;28;87036;-74